createdAt,value
2023-05-20T00:00:53.890Z,16.48
2023-05-20T00:03:21.871Z,16.54
2023-05-20T00:05:49.447Z,16.64
2023-05-20T00:08:19.368Z,16.63
2023-05-20T00:10:46.990Z,16.67
2023-05-20T00:13:14.421Z,16.68
2023-05-20T00:15:41.950Z,16.66
2023-05-20T00:18:09.315Z,16.62
2023-05-20T00:20:36.683Z,16.61
2023-05-20T00:23:05.485Z,16.69
2023-05-20T00:25:33.141Z,16.78
2023-05-20T00:28:00.745Z,16.66
2023-05-20T00:30:28.361Z,16.76
2023-05-20T00:32:56.835Z,16.74
2023-05-20T00:35:24.250Z,16.78
2023-05-20T00:37:51.610Z,16.85
2023-05-20T00:40:19.191Z,16.78
2023-05-20T00:42:46.585Z,16.69
2023-05-20T00:45:14.005Z,16.67
2023-05-20T00:47:42.705Z,16.69
2023-05-20T00:50:11.416Z,16.73
2023-05-20T00:52:41.667Z,16.90
2023-05-20T00:55:09.311Z,16.68
2023-05-20T00:57:36.918Z,16.73
2023-05-20T01:00:05.913Z,16.72
2023-05-20T01:02:33.401Z,16.74
2023-05-20T01:05:01.465Z,16.70
2023-05-20T01:07:29.150Z,16.74
2023-05-20T01:09:56.858Z,16.66
2023-05-20T01:12:31.734Z,16.66
2023-05-20T01:15:05.765Z,16.80
2023-05-20T01:17:38.056Z,16.73
2023-05-20T01:20:10.359Z,16.79
2023-05-20T01:22:41.874Z,16.83
2023-05-20T01:25:10.088Z,16.75
2023-05-20T01:27:37.945Z,16.80
2023-05-20T01:30:08.925Z,16.67
2023-05-20T01:32:40.605Z,16.71
2023-05-20T01:35:10.094Z,16.58
2023-05-20T01:37:40.482Z,16.50
2023-05-20T01:40:09.673Z,16.52
2023-05-20T01:42:38.821Z,16.51
2023-05-20T01:45:07.094Z,16.47
2023-05-20T01:47:34.562Z,16.43
2023-05-20T01:50:03.170Z,16.49
2023-05-20T01:52:31.807Z,16.45
2023-05-20T01:54:59.377Z,16.38
2023-05-20T01:57:26.720Z,16.40
2023-05-20T01:59:54.163Z,16.39
2023-05-20T02:02:22.742Z,16.37
2023-05-20T02:04:53.685Z,16.60
2023-05-20T02:07:24.012Z,16.45
2023-05-20T02:09:52.857Z,16.42
2023-05-20T02:12:20.345Z,16.59
2023-05-20T02:14:48.390Z,16.61
2023-05-20T02:17:17.901Z,16.48
2023-05-20T02:19:46.136Z,16.25
2023-05-20T02:22:15.537Z,16.07
2023-05-20T02:24:44.844Z,16.07
2023-05-20T02:27:12.982Z,15.99
2023-05-20T02:29:40.523Z,16.33
2023-05-20T02:32:08.950Z,16.52
2023-05-20T02:34:36.454Z,16.62
2023-05-20T02:37:04.020Z,16.74
2023-05-20T02:39:31.462Z,16.80
2023-05-20T02:41:58.840Z,16.75
2023-05-20T02:44:26.545Z,16.87
2023-05-20T02:46:55.480Z,16.76
2023-05-20T02:49:24.337Z,16.76
2023-05-20T02:51:52.624Z,16.85
2023-05-20T02:54:20.050Z,16.85
2023-05-20T02:56:47.447Z,16.79
2023-05-20T02:59:15.494Z,16.82
2023-05-20T03:01:43.071Z,16.86
2023-05-20T03:04:10.561Z,16.80
2023-05-20T03:06:38.469Z,16.82
2023-05-20T03:09:05.998Z,16.77
2023-05-20T03:11:33.512Z,16.74
2023-05-20T03:14:00.943Z,16.77
2023-05-20T03:16:28.947Z,16.83
2023-05-20T03:18:56.418Z,16.67
2023-05-20T03:21:24.266Z,16.42
2023-05-20T03:23:51.986Z,16.31
2023-05-20T03:26:19.822Z,16.22
2023-05-20T03:28:47.267Z,16.16
2023-05-20T03:31:15.059Z,16.10
2023-05-20T03:33:42.526Z,16.03
2023-05-20T03:36:09.949Z,16.07
2023-05-20T03:38:37.805Z,16.03
2023-05-20T03:41:05.300Z,16.00
2023-05-20T03:43:34.149Z,15.94
2023-05-20T03:46:01.960Z,15.93
2023-05-20T03:48:29.820Z,15.90
2023-05-20T03:50:57.282Z,15.86
2023-05-20T03:53:24.852Z,15.90
2023-05-20T03:55:52.212Z,15.76
2023-05-20T03:58:23.520Z,15.74
2023-05-20T04:00:50.917Z,15.74
2023-05-20T04:03:18.977Z,15.72
2023-05-20T04:05:48.351Z,15.74
2023-05-20T04:08:22.087Z,15.75
2023-05-20T04:10:49.756Z,15.77
2023-05-20T04:13:17.369Z,15.77
2023-05-20T04:15:44.766Z,15.75
2023-05-20T04:18:13.840Z,15.72
2023-05-20T04:20:41.852Z,15.78
2023-05-20T04:23:10.799Z,15.80
2023-05-20T04:25:39.004Z,15.80
2023-05-20T04:28:06.640Z,15.80
2023-05-20T04:30:34.069Z,15.81
2023-05-20T04:33:04.459Z,15.77
2023-05-20T04:35:35.121Z,15.78
2023-05-20T04:38:05.244Z,15.85
2023-05-20T04:40:32.716Z,15.82
2023-05-20T04:43:00.864Z,15.88
2023-05-20T04:45:28.507Z,15.96
2023-05-20T04:47:56.059Z,15.98
2023-05-20T04:50:23.678Z,16.01
2023-05-20T04:52:51.693Z,16.05
2023-05-20T04:55:19.828Z,16.04
2023-05-20T04:57:47.331Z,16.11
2023-05-20T05:00:14.966Z,16.12
2023-05-20T05:02:42.550Z,16.15
2023-05-20T05:05:10.272Z,16.17
2023-05-20T05:07:38.732Z,16.18
2023-05-20T05:10:06.737Z,16.14
2023-05-20T05:12:35.709Z,16.17
2023-05-20T05:15:05.044Z,16.19
2023-05-20T05:17:32.548Z,16.25
2023-05-20T05:20:00.252Z,16.26
2023-05-20T05:22:31.103Z,16.27
2023-05-20T05:24:59.060Z,16.32
2023-05-20T05:27:26.484Z,16.34
2023-05-20T05:29:53.900Z,16.33
2023-05-20T05:32:21.354Z,16.35
2023-05-20T05:34:48.905Z,16.42
2023-05-20T05:37:19.988Z,16.47
2023-05-20T05:39:47.808Z,16.49
2023-05-20T05:42:15.718Z,16.48
2023-05-20T05:44:44.441Z,16.51
2023-05-20T05:47:11.986Z,16.55
2023-05-20T05:49:39.481Z,16.55
2023-05-20T05:52:09.319Z,16.61
2023-05-20T05:54:36.840Z,16.67
2023-05-20T05:57:06.508Z,16.74
2023-05-20T05:59:35.451Z,16.76
2023-05-20T06:02:03.003Z,16.76
2023-05-20T06:04:30.886Z,16.80
2023-05-20T06:06:59.043Z,16.81
2023-05-20T06:09:26.489Z,16.78
2023-05-20T06:11:54.032Z,16.75
2023-05-20T06:14:21.747Z,16.68
2023-05-20T06:16:49.226Z,16.68
2023-05-20T06:19:18.514Z,16.69
2023-05-20T06:21:46.173Z,16.73
2023-05-20T06:24:16.189Z,16.77
2023-05-20T06:26:45.986Z,16.75
2023-05-20T06:29:13.492Z,16.72
2023-05-20T06:31:41.673Z,16.64
2023-05-20T06:34:09.109Z,16.61
2023-05-20T06:36:37.024Z,16.62
2023-05-20T06:39:06.432Z,16.63
2023-05-20T06:41:34.856Z,16.70
2023-05-20T06:44:09.031Z,16.72
2023-05-20T06:46:55.117Z,16.75
2023-05-20T06:49:24.078Z,16.70
2023-05-20T06:51:51.936Z,16.89
2023-05-20T06:54:19.665Z,16.78
2023-05-20T06:56:47.295Z,16.79
2023-05-20T06:59:15.828Z,16.78
2023-05-20T07:01:44.100Z,16.92
2023-05-20T07:04:12.628Z,16.97
2023-05-20T07:06:40.298Z,16.94
2023-05-20T07:09:07.884Z,17.04
2023-05-20T07:11:35.358Z,17.07
2023-05-20T07:14:02.810Z,17.10
2023-05-20T07:16:32.957Z,17.08
2023-05-20T07:19:01.087Z,17.02
2023-05-20T07:21:28.578Z,17.05
2023-05-20T07:24:03.317Z,17.08
2023-05-20T07:26:33.719Z,17.12
2023-05-20T07:29:02.021Z,17.11
2023-05-20T07:31:29.948Z,17.11
2023-05-20T07:33:57.873Z,17.06
2023-05-20T07:36:27.560Z,17.16
2023-05-20T07:39:03.289Z,17.13
2023-05-20T07:41:36.419Z,17.13
2023-05-20T07:44:05.764Z,17.06
2023-05-20T07:46:35.330Z,17.03
2023-05-20T07:49:05.101Z,17.11
2023-05-20T07:51:33.863Z,17.00
2023-05-20T07:54:01.758Z,17.04
2023-05-20T07:56:29.641Z,17.06
2023-05-20T07:58:59.322Z,17.23
2023-05-20T08:01:30.274Z,17.50
2023-05-20T08:03:57.863Z,17.57
2023-05-20T08:06:28.750Z,17.75
2023-05-20T08:08:57.657Z,17.83
2023-05-20T08:11:30.464Z,17.85
2023-05-20T08:13:58.273Z,17.97
2023-05-20T08:16:28.684Z,17.95
2023-05-20T08:18:56.162Z,17.89
2023-05-20T08:21:23.569Z,17.83
2023-05-20T08:23:51.467Z,17.98
2023-05-20T08:26:18.973Z,17.75
2023-05-20T08:28:46.798Z,17.80
2023-05-20T08:31:14.814Z,17.73
2023-05-20T08:33:42.312Z,17.72
2023-05-20T08:36:10.020Z,17.75
2023-05-20T08:38:37.477Z,17.56
2023-05-20T08:41:04.830Z,17.50
2023-05-20T08:43:33.444Z,17.55
2023-05-20T08:46:06.920Z,17.38
2023-05-20T08:48:37.073Z,17.51
2023-05-20T08:51:09.646Z,17.41
2023-05-20T08:53:37.408Z,17.39
2023-05-20T08:56:06.378Z,17.24
2023-05-20T08:58:33.927Z,17.43
2023-05-20T09:01:02.290Z,17.36
2023-05-20T09:03:30.642Z,17.35
2023-05-20T09:06:06.687Z,17.27
2023-05-20T09:08:34.538Z,17.52
2023-05-20T09:11:02.601Z,17.45
2023-05-20T09:13:32.753Z,17.53
2023-05-20T09:16:02.129Z,17.63
2023-05-20T09:18:30.266Z,17.67
2023-05-20T09:20:58.083Z,17.61
2023-05-20T09:23:26.038Z,17.55
2023-05-20T09:25:53.504Z,17.56
2023-05-20T09:28:26.725Z,17.69
2023-05-20T09:31:02.164Z,17.60
2023-05-20T09:33:32.132Z,17.54
2023-05-20T09:36:08.429Z,17.69
2023-05-20T09:38:40.269Z,17.92
2023-05-20T09:41:12.786Z,18.13
2023-05-20T09:43:41.993Z,18.23
2023-05-20T09:46:10.891Z,18.29
2023-05-20T09:48:39.891Z,18.16
2023-05-20T09:51:12.006Z,18.19
2023-05-20T09:53:39.346Z,18.28
2023-05-20T09:56:06.769Z,18.21
2023-05-20T09:58:36.096Z,18.19
2023-05-20T10:01:03.738Z,18.28
2023-05-20T10:03:33.568Z,18.22
2023-05-20T10:06:10.129Z,18.38
2023-05-20T10:09:07.456Z,18.40
2023-05-20T10:11:37.958Z,18.27
2023-05-20T10:14:20.841Z,18.42
2023-05-20T10:17:12.747Z,18.49
2023-05-20T10:19:40.248Z,18.56
2023-05-20T10:22:09.883Z,18.61
2023-05-20T10:24:41.127Z,18.74
2023-05-20T10:27:11.497Z,18.74
2023-05-20T10:32:49.693Z,18.71
2023-05-20T10:35:22.926Z,18.79
2023-05-20T10:37:50.429Z,18.86
2023-05-20T10:40:20.198Z,18.96
2023-05-20T10:42:48.234Z,18.92
2023-05-20T10:45:28.819Z,18.99
2023-05-20T10:48:00.236Z,19.14
2023-05-20T10:50:35.423Z,19.27
2023-05-20T10:53:13.345Z,19.25
2023-05-20T10:55:52.301Z,19.35
2023-05-20T10:58:19.907Z,19.52
2023-05-20T11:00:50.817Z,19.50
2023-05-20T11:03:18.760Z,19.55
2023-05-20T11:05:47.573Z,19.47
2023-05-20T11:08:27.685Z,19.53
2023-05-20T11:11:00.342Z,19.33
2023-05-20T11:13:27.901Z,19.33
2023-05-20T11:15:55.777Z,19.19
2023-05-20T11:18:23.196Z,19.21
2023-05-20T11:20:51.159Z,19.20
2023-05-20T11:23:19.258Z,19.25
2023-05-20T11:25:46.765Z,19.23
2023-05-20T11:28:14.580Z,19.31
2023-05-20T11:30:43.442Z,19.29
2023-05-20T11:33:15.905Z,19.23
2023-05-20T11:35:52.945Z,19.18
2023-05-20T11:38:21.799Z,19.19
2023-05-20T11:40:54.637Z,19.25
2023-05-20T11:43:23.950Z,19.10
2023-05-20T11:46:01.155Z,19.06
2023-05-20T11:48:28.824Z,19.00
2023-05-20T11:50:57.072Z,19.06
2023-05-20T11:53:24.872Z,18.93
2023-05-20T11:55:57.550Z,18.98
2023-05-20T11:58:29.826Z,19.07
2023-05-20T12:01:05.628Z,18.98
2023-05-20T12:03:41.481Z,18.99
2023-05-20T12:06:12.317Z,18.98
2023-05-20T12:08:39.683Z,18.94
2023-05-20T12:11:07.104Z,18.91
2023-05-20T12:13:35.453Z,18.99
2023-05-20T12:16:04.274Z,19.14
2023-05-20T12:18:32.851Z,19.08
2023-05-20T12:21:01.353Z,19.15
2023-05-20T12:23:30.823Z,19.20
2023-05-20T12:25:58.245Z,19.18
2023-05-20T12:28:25.696Z,19.14
2023-05-20T12:30:53.096Z,19.32
2023-05-20T12:33:20.909Z,19.29
2023-05-20T12:35:48.456Z,19.34
2023-05-20T12:38:15.940Z,19.35
2023-05-20T12:40:43.486Z,19.38
2023-05-20T12:43:10.947Z,19.42
2023-05-20T12:45:38.336Z,19.39
2023-05-20T12:48:07.866Z,19.41
2023-05-20T12:50:35.672Z,19.44
2023-05-20T12:53:03.291Z,19.50
2023-05-20T12:55:30.940Z,19.48
2023-05-20T12:57:58.342Z,19.59
2023-05-20T13:00:25.884Z,19.65
2023-05-20T13:02:53.416Z,19.71
2023-05-20T13:05:22.475Z,19.59
2023-05-20T13:07:49.859Z,19.66
2023-05-20T13:10:18.109Z,19.69
2023-05-20T13:12:46.391Z,19.66
2023-05-20T13:15:17.786Z,19.73
2023-05-20T13:17:48.278Z,19.69
2023-05-20T13:20:19.656Z,19.73
2023-05-20T13:22:47.501Z,19.63
2023-05-20T13:25:14.986Z,19.63
2023-05-20T13:27:42.747Z,19.69
2023-05-20T13:30:10.854Z,19.63
2023-05-20T13:32:38.392Z,19.72
2023-05-20T13:35:06.377Z,19.70
2023-05-20T13:37:33.718Z,19.70
2023-05-20T13:40:01.154Z,19.65
2023-05-20T13:42:28.671Z,19.65
2023-05-20T13:44:56.268Z,19.57
2023-05-20T13:47:23.739Z,19.53
2023-05-20T13:49:51.187Z,19.50
2023-05-20T13:52:18.576Z,19.53
2023-05-20T13:54:47.513Z,19.50
2023-05-20T13:57:18.069Z,19.31
2023-05-20T13:59:45.826Z,19.33
2023-05-20T14:02:13.356Z,19.50
2023-05-20T14:04:44.737Z,19.39
2023-05-20T14:07:12.388Z,19.40
2023-05-20T14:09:39.820Z,19.34
2023-05-20T14:12:07.574Z,19.40
2023-05-20T14:14:35.004Z,19.48
2023-05-20T14:17:02.416Z,19.44
2023-05-20T14:19:30.240Z,19.41
2023-05-20T14:22:01.379Z,19.47
2023-05-20T14:24:29.239Z,19.54
2023-05-20T14:26:56.639Z,19.52
2023-05-20T14:29:24.174Z,19.50
2023-05-20T14:31:51.665Z,19.65
2023-05-20T14:34:21.741Z,19.66
2023-05-20T14:36:49.190Z,19.63
2023-05-20T14:39:17.148Z,19.67
2023-05-20T14:41:44.559Z,19.72
2023-05-20T14:44:11.962Z,19.63
2023-05-20T14:46:39.555Z,19.41
2023-05-20T14:49:10.106Z,19.37
2023-05-20T14:51:37.518Z,19.37
2023-05-20T14:54:06.017Z,19.40
2023-05-20T14:56:33.375Z,19.32
2023-05-20T14:59:00.799Z,19.31
2023-05-20T15:01:28.730Z,19.34
2023-05-20T15:03:56.214Z,19.32
2023-05-20T15:06:23.655Z,19.37
2023-05-20T15:08:51.118Z,19.34
2023-05-20T15:11:18.580Z,19.20
2023-05-20T15:13:46.601Z,19.12
2023-05-20T15:16:14.169Z,19.17
2023-05-20T15:18:41.681Z,19.11
2023-05-20T15:21:09.133Z,19.25
2023-05-20T15:23:36.522Z,19.12
2023-05-20T15:26:04.585Z,19.08
2023-05-20T15:28:32.019Z,19.03
2023-05-20T15:31:02.194Z,19.04
2023-05-20T15:33:29.729Z,19.10
2023-05-20T15:35:57.238Z,19.02
2023-05-20T15:38:24.693Z,19.22
2023-05-20T15:40:52.152Z,19.26
2023-05-20T15:43:19.982Z,19.33
2023-05-20T15:45:48.363Z,19.21
2023-05-20T15:48:15.996Z,19.13
2023-05-20T15:50:43.511Z,19.33
2023-05-20T15:53:11.085Z,19.11
2023-05-20T15:55:38.590Z,19.15
2023-05-20T15:58:06.131Z,19.24
2023-05-20T16:00:33.991Z,19.29
2023-05-20T16:03:01.791Z,19.15
2023-05-20T16:05:29.424Z,19.06
2023-05-20T16:07:57.130Z,18.95
2023-05-20T16:10:26.186Z,19.04
2023-05-20T16:12:53.653Z,18.88
2023-05-20T16:15:21.109Z,18.86
2023-05-20T16:17:48.504Z,18.85
2023-05-20T16:20:15.959Z,18.80
2023-05-20T16:22:43.384Z,18.92
2023-05-20T16:25:14.309Z,18.76
2023-05-20T16:27:41.713Z,18.76
2023-05-20T16:30:10.131Z,18.79
2023-05-20T16:32:37.533Z,18.73
2023-05-20T16:35:06.064Z,18.84
2023-05-20T16:37:34.282Z,18.78
2023-05-20T16:40:01.795Z,18.79
2023-05-20T16:42:29.681Z,18.87
2023-05-20T16:44:57.068Z,18.87
2023-05-20T16:47:24.434Z,18.89
2023-05-20T16:49:52.234Z,18.89
2023-05-20T16:52:19.623Z,18.81
2023-05-20T16:54:47.078Z,18.60
2023-05-20T16:57:16.037Z,18.48
2023-05-20T16:59:43.455Z,18.29
2023-05-20T17:02:10.882Z,18.46
2023-05-20T17:04:38.585Z,18.36
2023-05-20T17:07:09.742Z,18.19
2023-05-20T17:09:37.483Z,18.19
2023-05-20T17:12:07.970Z,18.08
2023-05-20T17:14:35.426Z,18.01
2023-05-20T17:17:02.860Z,17.97
2023-05-20T17:19:30.673Z,17.93
2023-05-20T17:22:01.220Z,17.85
2023-05-20T17:24:28.660Z,17.86
2023-05-20T17:26:56.248Z,17.86
2023-05-20T17:29:23.622Z,17.83
2023-05-20T17:31:51.238Z,17.81
2023-05-20T17:34:18.778Z,17.78
2023-05-20T17:36:46.494Z,17.82
2023-05-20T17:39:13.971Z,17.74
2023-05-20T17:41:42.992Z,17.68
2023-05-20T17:44:11.312Z,17.66
2023-05-20T17:46:38.877Z,17.64
2023-05-20T17:49:06.453Z,17.53
2023-05-20T17:51:34.361Z,17.50
2023-05-20T17:54:04.609Z,17.46
2023-05-20T17:56:32.199Z,17.43
2023-05-20T17:58:59.724Z,17.41
2023-05-20T18:01:27.263Z,17.39
2023-05-20T18:03:54.847Z,17.38
2023-05-20T18:06:23.159Z,17.37
2023-05-20T18:08:50.783Z,17.37
2023-05-20T18:11:18.272Z,17.36
2023-05-20T18:13:46.276Z,17.30
2023-05-20T18:16:14.604Z,17.37
2023-05-20T18:18:42.532Z,17.47
2023-05-20T18:21:10.145Z,17.60
2023-05-20T18:23:37.542Z,17.62
2023-05-20T18:26:07.010Z,17.58
2023-05-20T18:28:34.888Z,17.61
2023-05-20T18:31:04.623Z,17.55
2023-05-20T18:33:32.516Z,17.61
2023-05-20T18:36:00.169Z,17.67
2023-05-20T18:38:27.680Z,17.63
2023-05-20T18:40:55.205Z,17.67
2023-05-20T18:43:22.543Z,17.61
2023-05-20T18:45:50.225Z,17.55
2023-05-20T18:48:26.092Z,17.49
2023-05-20T18:50:58.563Z,17.47
2023-05-20T18:53:26.086Z,17.46
2023-05-20T18:55:53.669Z,17.51
2023-05-20T18:58:21.417Z,17.56
2023-05-20T19:00:48.996Z,17.58
2023-05-20T19:03:17.113Z,17.57
2023-05-20T19:08:11.902Z,17.52
2023-05-20T19:10:41.639Z,17.45
2023-05-20T19:13:09.302Z,17.49
2023-05-20T19:15:37.045Z,17.46
2023-05-20T19:18:04.719Z,17.44
2023-05-20T19:20:34.092Z,17.44
2023-05-20T19:23:01.481Z,17.41
2023-05-20T19:25:28.962Z,17.45
2023-05-20T19:27:56.343Z,17.59
2023-05-20T19:30:23.708Z,17.59
2023-05-20T19:32:51.136Z,17.56
2023-05-20T19:35:18.610Z,17.42
2023-05-20T19:37:46.010Z,17.34
2023-05-20T19:40:13.873Z,17.18
2023-05-20T19:42:41.220Z,17.15
2023-05-20T19:45:09.270Z,17.13
2023-05-20T19:47:37.495Z,17.12
2023-05-20T19:50:05.585Z,17.12
2023-05-20T19:52:32.961Z,17.03
2023-05-20T19:55:00.496Z,17.06
2023-05-20T19:57:27.966Z,17.03
2023-05-20T19:59:55.374Z,17.04
2023-05-20T20:02:22.836Z,17.01
2023-05-20T20:04:53.750Z,17.01
2023-05-20T20:07:21.675Z,16.96
2023-05-20T20:09:51.662Z,16.97
2023-05-20T20:12:19.147Z,16.96
2023-05-20T20:14:46.686Z,16.97
2023-05-20T20:17:17.388Z,16.97
2023-05-20T20:19:48.104Z,16.96
2023-05-20T20:22:16.617Z,16.95
2023-05-20T20:24:44.013Z,16.96
2023-05-20T20:27:13.238Z,16.96
2023-05-20T20:29:43.556Z,16.93
2023-05-20T20:32:11.794Z,16.94
2023-05-20T20:34:39.223Z,16.98
2023-05-20T20:37:06.874Z,16.99
2023-05-20T20:39:34.750Z,16.99
2023-05-20T20:42:02.959Z,16.99
2023-05-20T20:44:30.751Z,17.01
2023-05-20T20:46:58.803Z,17.08
2023-05-20T20:49:28.430Z,17.11
2023-05-20T20:51:56.070Z,17.14
2023-05-20T20:54:23.619Z,17.07
2023-05-20T20:56:56.649Z,17.07
2023-05-20T20:59:26.684Z,17.04
2023-05-20T21:01:55.306Z,17.03
2023-05-20T21:04:22.747Z,17.04
2023-05-20T21:06:50.292Z,17.03
2023-05-20T21:09:17.823Z,17.02
2023-05-20T21:11:51.645Z,17.03
2023-05-20T21:14:19.056Z,17.07
2023-05-20T21:16:46.546Z,17.09
2023-05-20T21:19:14.101Z,17.08
2023-05-20T21:21:41.557Z,17.05
2023-05-20T21:24:08.922Z,17.01
2023-05-20T21:26:36.295Z,16.98
2023-05-20T21:29:04.765Z,16.99
2023-05-20T21:31:32.216Z,17.00
2023-05-20T21:33:59.556Z,17.00
2023-05-20T21:36:27.004Z,16.97
2023-05-20T21:38:54.447Z,16.97
2023-05-20T21:41:21.875Z,16.94
2023-05-20T21:43:49.279Z,16.96
2023-05-20T21:46:16.727Z,16.93
2023-05-20T21:48:44.282Z,16.98
2023-05-20T21:51:11.715Z,17.02
2023-05-20T21:53:39.040Z,17.01
2023-05-20T21:56:06.701Z,17.00
2023-05-20T21:58:36.674Z,17.06
2023-05-20T22:01:04.142Z,17.07
2023-05-20T22:03:33.014Z,17.06
2023-05-20T22:06:00.895Z,17.09
2023-05-20T22:08:33.136Z,17.10
2023-05-20T22:11:05.326Z,17.11
2023-05-20T22:13:34.870Z,17.12
2023-05-20T22:16:04.920Z,17.13
2023-05-20T22:18:32.749Z,17.12
2023-05-20T22:21:01.161Z,17.08
2023-05-20T22:23:28.955Z,17.12
2023-05-20T22:25:56.915Z,17.04
2023-05-20T22:28:26.227Z,17.04
2023-05-20T22:30:53.679Z,17.01
2023-05-20T22:33:22.824Z,17.03
2023-05-20T22:35:51.361Z,16.91
2023-05-20T22:38:22.003Z,16.88
2023-05-20T22:40:49.421Z,16.91
2023-05-20T22:43:16.930Z,16.90
2023-05-20T22:45:44.403Z,16.89
2023-05-20T22:48:12.408Z,16.91
2023-05-20T22:50:40.302Z,16.98
2023-05-20T22:53:07.809Z,16.97
2023-05-20T22:55:35.425Z,16.95
2023-05-20T22:58:02.913Z,16.99
2023-05-20T23:00:30.336Z,17.00
2023-05-20T23:02:58.641Z,16.98
2023-05-20T23:05:26.480Z,17.00
2023-05-20T23:07:54.900Z,17.01
2023-05-20T23:10:24.294Z,17.00
2023-05-20T23:12:52.243Z,16.94
2023-05-20T23:15:19.826Z,16.91
2023-05-20T23:17:47.804Z,16.96
2023-05-20T23:20:19.016Z,16.93
2023-05-20T23:22:46.526Z,17.00
2023-05-20T23:25:13.895Z,17.02
2023-05-20T23:27:41.326Z,16.97
2023-05-20T23:30:09.400Z,16.97
2023-05-20T23:32:36.875Z,16.99
2023-05-20T23:35:04.892Z,16.98
2023-05-20T23:37:34.444Z,17.03
2023-05-20T23:40:01.885Z,17.05
2023-05-20T23:42:29.297Z,17.04
2023-05-20T23:44:56.673Z,17.00
2023-05-20T23:47:29.929Z,17.01
2023-05-20T23:49:58.467Z,16.99
2023-05-20T23:52:26.567Z,17.01
2023-05-20T23:54:54.069Z,17.02
2023-05-20T23:57:21.480Z,17.01
2023-05-20T23:59:49.111Z,17.02
